Time,TemperatureF,DewpointF,PressureIn,WindDirection,WindDirectionDegrees,WindSpeedMPH,WindSpeedGustMPH,Humidity,HourlyPrecipIn,Conditions,Clouds,dailyrainin,SolarRadiationWatts/m^2,SoftwareType,DateUTC
2013-09-16 00:00:00,74.6,60.0,29.79,ENE,57,1.0,2.0,61,0.00,,,0.00,0,weatherlink.com 1.10,2013-09-16 06:00:00,
2013-09-16 00:15:00,74.7,60.0,29.79,ENE,61,1.0,8.0,61,0.00,,,0.00,0,weatherlink.com 1.10,2013-09-16 06:15:00,
2013-09-16 00:30:00,73.9,61.0,29.79,NE,56,1.0,6.0,64,0.00,,,0.00,0,weatherlink.com 1.10,2013-09-16 06:30:00,
2013-09-16 00:45:00,73.3,61.0,29.79,ENE,57,0.0,6.0,65,0.00,,,0.00,0,weatherlink.com 1.10,2013-09-16 06:45:00,
2013-09-16 01:00:00,72.9,61.0,29.79,ENE,59,0.0,7.0,66,0.00,,,0.00,0,weatherlink.com 1.10,2013-09-16 07:00:00,
2013-09-16 01:15:00,72.8,61.0,29.79,ENE,59,0.0,3.0,66,0.00,,,0.00,0,weatherlink.com 1.10,2013-09-16 07:15:00,
2013-09-16 01:30:00,72.5,61.0,29.79,ENE,60,0.0,4.0,67,0.00,,,0.00,0,weatherlink.com 1.10,2013-09-16 07:30:00,
2013-09-16 01:45:00,72.2,61.0,29.79,ENE,60,0.0,3.0,67,0.00,,,0.00,0,weatherlink.com 1.10,2013-09-16 07:45:00,
2013-09-16 02:00:00,71.9,61.0,29.79,ENE,60,2.0,2.0,68,0.00,,,0.00,0,weatherlink.com 1.10,2013-09-16 08:00:00,
2013-09-16 02:15:00,71.6,60.0,29.79,ENE,60,0.0,3.0,68,0.00,,,0.00,0,weatherlink.com 1.10,2013-09-16 08:15:00,
2013-09-16 02:30:00,71.3,61.0,29.79,ENE,60,0.0,3.0,69,0.00,,,0.00,0,weatherlink.com 1.10,2013-09-16 08:30:00,
2013-09-16 02:45:00,71.2,61.0,29.79,ENE,60,2.0,2.0,69,0.00,,,0.00,0,weatherlink.com 1.10,2013-09-16 08:45:00,
2013-09-16 03:00:00,71.0,61.0,29.79,ENE,60,0.0,1.0,70,0.00,,,0.00,0,weatherlink.com 1.10,2013-09-16 09:00:00,
2013-09-16 03:15:00,70.5,61.0,29.79,ENE,60,0.0,0.0,72,0.00,,,0.00,0,weatherlink.com 1.10,2013-09-16 09:15:00,
2013-09-16 03:30:00,70.0,61.0,29.79,ENE,60,0.0,0.0,73,0.00,,,0.00,0,weatherlink.com 1.10,2013-09-16 09:30:00,
2013-09-16 03:45:00,70.0,61.0,29.79,ENE,60,0.0,0.0,73,0.00,,,0.00,0,weatherlink.com 1.10,2013-09-16 09:45:00,
2013-09-16 04:00:00,70.5,61.0,29.80,ENE,60,0.0,0.0,72,0.00,,,0.00,0,weatherlink.com 1.10,2013-09-16 10:00:00,
2013-09-16 04:15:00,70.5,61.0,29.80,ENE,60,0.0,0.0,72,0.00,,,0.00,0,weatherlink.com 1.10,2013-09-16 10:15:00,
2013-09-16 04:30:00,69.8,61.0,29.80,ENE,60,0.0,0.0,74,0.00,,,0.00,0,weatherlink.com 1.10,2013-09-16 10:30:00,
2013-09-16 04:45:00,69.6,61.0,29.80,ENE,60,0.0,0.0,74,0.00,,,0.00,0,weatherlink.com 1.10,2013-09-16 10:45:00,
2013-09-16 05:00:00,69.1,62.0,29.81,ENE,60,0.0,0.0,77,0.00,,,0.00,0,weatherlink.com 1.10,2013-09-16 11:00:00,
2013-09-16 05:15:00,69.0,62.0,29.82,ENE,60,0.0,2.0,77,0.00,,,0.00,0,weatherlink.com 1.10,2013-09-16 11:15:00,
2013-09-16 05:30:00,69.3,61.0,29.82,NE,52,0.0,8.0,75,0.00,,,0.00,0,weatherlink.com 1.10,2013-09-16 11:30:00,
2013-09-16 05:45:00,69.7,61.0,29.83,NE,48,0.0,5.0,73,0.00,,,0.00,0,weatherlink.com 1.10,2013-09-16 11:45:00,
2013-09-16 06:00:00,68.9,61.0,29.83,NNE,26,0.0,10.0,75,0.00,,,0.00,0,weatherlink.com 1.10,2013-09-16 12:00:00,
2013-09-16 06:15:00,68.1,61.0,29.84,NNE,22,0.0,6.0,77,0.00,,,0.00,0,weatherlink.com 1.10,2013-09-16 12:15:00,
2013-09-16 06:30:00,67.5,61.0,29.84,NNE,20,0.0,5.0,79,0.00,,,0.00,0,weatherlink.com 1.10,2013-09-16 12:30:00,
2013-09-16 06:45:00,67.2,60.0,29.85,North,11,5.0,8.0,78,0.00,,,0.00,0,weatherlink.com 1.10,2013-09-16 12:45:00,
2013-09-16 07:00:00,66.7,60.0,29.86,NNE,16,1.0,9.0,79,0.00,,,0.00,7,weatherlink.com 1.10,2013-09-16 13:00:00,
2013-09-16 07:16:00,66.4,60.0,29.87,NNE,16,9.0,9.0,80,0.00,,,0.00,21,weatherlink.com 1.10,2013-09-16 13:16:00,
2013-09-16 07:31:00,66.2,60.0,29.88,NNE,12,3.0,9.0,80,0.00,,,0.00,49,weatherlink.com 1.10,2013-09-16 13:31:00,
2013-09-16 07:46:00,66.1,60.0,29.88,North,11,1.0,9.0,80,0.00,,,0.00,35,weatherlink.com 1.10,2013-09-16 13:46:00,
2013-09-16 08:01:00,66.3,60.0,29.88,North,5,4.0,8.0,80,0.00,,,0.00,62,weatherlink.com 1.10,2013-09-16 14:01:00,
2013-09-16 08:16:00,66.4,60.0,29.88,North,11,4.0,10.0,80,0.00,,,0.00,90,weatherlink.com 1.10,2013-09-16 14:16:00,
2013-09-16 08:31:00,67.1,60.0,29.88,North,5,4.0,9.0,79,0.00,,,0.00,149,weatherlink.com 1.10,2013-09-16 14:31:00,
2013-09-16 08:46:00,67.5,60.0,29.88,North,5,0.0,8.0,78,0.00,,,0.00,121,weatherlink.com 1.10,2013-09-16 14:46:00,
2013-09-16 09:01:00,67.6,60.0,29.89,NNE,13,3.0,11.0,77,0.00,,,0.00,162,weatherlink.com 1.10,2013-09-16 15:01:00,
2013-09-16 09:16:00,68.1,60.0,29.89,NNE,14,0.0,7.0,76,0.00,,,0.00,134,weatherlink.com 1.10,2013-09-16 15:16:00,
2013-09-16 09:31:00,68.4,61.0,29.89,North,5,0.0,10.0,76,0.00,,,0.00,272,weatherlink.com 1.10,2013-09-16 15:31:00,
2013-09-16 09:46:00,71.3,61.0,29.89,North,5,6.0,11.0,70,0.00,,,0.00,589,weatherlink.com 1.10,2013-09-16 15:46:00,
2013-09-16 10:01:00,72.9,61.0,29.89,North,5,0.0,9.0,67,0.00,,,0.00,278,weatherlink.com 1.10,2013-09-16 16:01:00,
2013-09-16 10:16:00,74.1,62.0,29.89,North,355,2.0,12.0,66,0.00,,,0.00,647,weatherlink.com 1.10,2013-09-16 16:16:00,
2013-09-16 10:31:00,74.7,62.0,29.89,North,351,1.0,9.0,65,0.00,,,0.00,360,weatherlink.com 1.10,2013-09-16 16:31:00,
2013-09-16 10:46:00,75.7,63.0,29.89,North,11,7.0,12.0,64,0.00,,,0.00,684,weatherlink.com 1.10,2013-09-16 16:46:00,
2013-09-16 11:01:00,76.0,62.0,29.89,NNE,14,4.0,9.0,63,0.00,,,0.00,327,weatherlink.com 1.10,2013-09-16 17:01:00,
2013-09-16 11:16:00,77.2,63.0,29.89,NNE,19,1.0,9.0,62,0.00,,,0.00,278,weatherlink.com 1.10,2013-09-16 17:16:00,
2013-09-16 11:31:00,77.0,62.0,29.89,NNE,26,1.0,8.0,61,0.00,,,0.00,587,weatherlink.com 1.10,2013-09-16 17:31:00,
2013-09-16 11:46:00,78.3,63.0,29.88,NNE,25,1.0,9.0,60,0.00,,,0.00,568,weatherlink.com 1.10,2013-09-16 17:46:00,
2013-09-16 12:01:00,78.2,63.0,29.88,NNE,23,5.0,11.0,59,0.00,,,0.00,276,weatherlink.com 1.10,2013-09-16 18:01:00,
2013-09-16 12:16:00,78.7,62.0,29.87,NE,51,4.0,10.0,57,0.00,,,0.00,410,weatherlink.com 1.10,2013-09-16 18:16:00,
2013-09-16 12:31:00,75.5,62.0,29.87,NNE,28,5.0,15.0,63,0.00,,,0.00,1102,weatherlink.com 1.10,2013-09-16 18:31:00,
2013-09-16 12:46:00,76.2,60.0,29.87,NNE,20,3.0,12.0,58,0.00,,,0.00,895,weatherlink.com 1.10,2013-09-16 18:46:00,
2013-09-16 13:01:00,78.9,63.0,29.86,NNE,23,1.0,7.0,58,0.00,,,0.00,865,weatherlink.com 1.10,2013-09-16 19:01:00,
2013-09-16 13:16:00,79.5,64.0,29.85,NNE,23,0.0,6.0,59,0.00,,,0.00,865,weatherlink.com 1.10,2013-09-16 19:16:00,
2013-09-16 13:31:00,81.4,64.0,29.84,NNE,23,0.0,7.0,56,0.00,,,0.00,236,weatherlink.com 1.10,2013-09-16 19:31:00,
2013-09-16 13:46:00,80.4,64.0,29.84,NNE,24,0.0,6.0,57,0.00,,,0.00,265,weatherlink.com 1.10,2013-09-16 19:46:00,
2013-09-16 14:01:00,80.6,63.0,29.83,NNE,24,1.0,5.0,56,0.00,,,0.00,262,weatherlink.com 1.10,2013-09-16 20:01:00,
2013-09-16 14:16:00,82.2,63.0,29.82,NNE,24,0.0,6.0,53,0.00,,,0.00,886,weatherlink.com 1.10,2013-09-16 20:16:00,
2013-09-16 14:31:00,82.9,61.0,29.82,NE,41,0.0,6.0,48,0.00,,,0.00,248,weatherlink.com 1.10,2013-09-16 20:31:00,
2013-09-16 14:46:00,82.6,61.0,29.81,NE,51,1.0,6.0,48,0.00,,,0.00,253,weatherlink.com 1.10,2013-09-16 20:46:00,
2013-09-16 15:02:00,83.7,61.0,29.80,ENE,68,7.0,8.0,46,0.00,,,0.00,320,weatherlink.com 1.10,2013-09-16 21:02:00,
2013-09-16 15:17:00,83.2,61.0,29.80,ENE,63,0.0,13.0,47,0.00,,,0.00,248,weatherlink.com 1.10,2013-09-16 21:17:00,
2013-09-16 15:32:00,84.1,60.0,29.79,East,84,3.0,11.0,44,0.00,,,0.00,169,weatherlink.com 1.10,2013-09-16 21:32:00,
2013-09-16 15:47:00,81.6,62.0,29.79,East,91,6.0,17.0,52,0.00,,,0.00,139,weatherlink.com 1.10,2013-09-16 21:47:00,
2013-09-16 16:02:00,81.0,61.0,29.78,ESE,115,1.0,13.0,51,0.00,,,0.00,120,weatherlink.com 1.10,2013-09-16 22:02:00,
2013-09-16 16:17:00,82.1,60.0,29.78,East,81,2.0,11.0,48,0.00,,,0.00,543,weatherlink.com 1.10,2013-09-16 22:17:00,
2013-09-16 16:32:00,82.6,58.0,29.78,ESE,109,3.0,11.0,43,0.00,,,0.00,489,weatherlink.com 1.10,2013-09-16 22:32:00,
2013-09-16 16:47:00,82.7,60.0,29.78,SE,130,1.0,16.0,46,0.00,,,0.00,441,weatherlink.com 1.10,2013-09-16 22:47:00,
2013-09-16 17:02:00,83.0,60.0,29.77,SE,125,0.0,8.0,46,0.00,,,0.00,385,weatherlink.com 1.10,2013-09-16 23:02:00,
2013-09-16 17:17:00,83.3,58.0,29.78,ESE,109,3.0,10.0,43,0.00,,,0.00,345,weatherlink.com 1.10,2013-09-16 23:17:00,
2013-09-16 17:32:00,83.8,60.0,29.78,ESE,122,1.0,9.0,44,0.00,,,0.00,325,weatherlink.com 1.10,2013-09-16 23:32:00,
2013-09-16 17:47:00,83.2,60.0,29.78,East,98,5.0,9.0,45,0.00,,,0.00,69,weatherlink.com 1.10,2013-09-16 23:47:00,
2013-09-16 18:02:00,82.6,59.0,29.78,East,94,1.0,7.0,45,0.00,,,0.00,83,weatherlink.com 1.10,2013-09-17 00:02:00,
2013-09-16 18:17:00,82.8,59.0,29.78,ESE,112,0.0,4.0,45,0.00,,,0.00,60,weatherlink.com 1.10,2013-09-17 00:17:00,
2013-09-16 18:32:00,82.5,59.0,29.78,East,81,1.0,9.0,45,0.00,,,0.00,33,weatherlink.com 1.10,2013-09-17 00:32:00,
2013-09-16 18:47:00,81.6,59.0,29.79,East,82,0.0,9.0,47,0.00,,,0.00,21,weatherlink.com 1.10,2013-09-17 00:47:00,
2013-09-16 19:02:00,81.0,59.0,29.79,East,84,1.0,6.0,48,0.00,,,0.00,7,weatherlink.com 1.10,2013-09-17 01:02:00,
2013-09-16 19:17:00,80.3,59.0,29.79,East,84,0.0,3.0,49,0.00,,,0.00,0,weatherlink.com 1.10,2013-09-17 01:17:00,
2013-09-16 19:32:00,79.8,59.0,29.79,East,89,0.0,3.0,50,0.00,,,0.00,0,weatherlink.com 1.10,2013-09-17 01:32:00,
2013-09-16 19:47:00,79.3,61.0,29.80,East,101,0.0,7.0,53,0.00,,,0.00,0,weatherlink.com 1.10,2013-09-17 01:47:00,
2013-09-16 20:02:00,78.9,61.0,29.80,ESE,103,0.0,5.0,54,0.00,,,0.00,0,weatherlink.com 1.10,2013-09-17 02:02:00,
2013-09-16 20:17:00,78.5,60.0,29.80,East,101,1.0,8.0,54,0.00,,,0.00,0,weatherlink.com 1.10,2013-09-17 02:17:00,
2013-09-16 20:32:00,77.6,60.0,29.81,East,96,0.0,9.0,54,0.00,,,0.00,0,weatherlink.com 1.10,2013-09-17 02:32:00,
2013-09-16 20:47:00,76.9,59.0,29.82,East,100,0.0,6.0,55,0.00,,,0.00,0,weatherlink.com 1.10,2013-09-17 02:47:00,
2013-09-16 21:02:00,76.1,60.0,29.82,East,91,5.0,7.0,58,0.00,,,0.00,0,weatherlink.com 1.10,2013-09-17 03:02:00,
2013-09-16 21:17:00,75.6,60.0,29.83,East,92,0.0,3.0,59,0.00,,,0.00,0,weatherlink.com 1.10,2013-09-17 03:17:00,
2013-09-16 21:32:00,75.1,60.0,29.84,East,92,0.0,2.0,60,0.00,,,0.00,0,weatherlink.com 1.10,2013-09-17 03:32:00,
2013-09-16 21:47:00,74.8,60.0,29.84,East,92,0.0,2.0,61,0.00,,,0.00,0,weatherlink.com 1.10,2013-09-17 03:47:00,
2013-09-16 22:02:00,74.8,60.0,29.84,East,91,0.0,1.0,61,0.00,,,0.00,0,weatherlink.com 1.10,2013-09-17 04:02:00,
2013-09-16 22:17:00,74.4,60.0,29.84,East,91,0.0,2.0,62,0.00,,,0.00,0,weatherlink.com 1.10,2013-09-17 04:17:00,
2013-09-16 22:32:00,74.1,61.0,29.84,East,91,0.0,1.0,64,0.00,,,0.00,0,weatherlink.com 1.10,2013-09-17 04:32:00,
2013-09-16 22:47:00,73.8,61.0,29.84,East,91,0.0,1.0,65,0.00,,,0.00,0,weatherlink.com 1.10,2013-09-17 04:47:00,
2013-09-16 23:02:00,73.6,61.0,29.84,East,92,0.0,1.0,65,0.00,,,0.00,0,weatherlink.com 1.10,2013-09-17 05:02:00,
2013-09-16 23:17:00,73.3,61.0,29.84,East,92,0.0,2.0,66,0.00,,,0.00,0,weatherlink.com 1.10,2013-09-17 05:17:00,
2013-09-16 23:32:00,72.8,61.0,29.84,East,92,0.0,2.0,67,0.00,,,0.00,0,weatherlink.com 1.10,2013-09-17 05:32:00,
2013-09-16 23:47:00,72.4,61.0,29.84,East,91,1.0,2.0,68,0.00,,,0.00,0,weatherlink.com 1.10,2013-09-17 05:47:00,